sensor_id;sensor_type;location;lat;lon;timestamp;temperature;humidity
66271;DHT22;53063;39.614;8.814;2023-03-20T00:01:12;12.50;99.90
66271;DHT22;53063;39.614;8.814;2023-03-20T00:03:38;12.40;99.90
66271;DHT22;53063;39.614;8.814;2023-03-20T00:06:04;12.40;99.90
66271;DHT22;53063;39.614;8.814;2023-03-20T00:08:30;12.50;99.90
66271;DHT22;53063;39.614;8.814;2023-03-20T00:10:57;12.40;99.90
66271;DHT22;53063;39.614;8.814;2023-03-20T00:13:26;12.50;99.90
66271;DHT22;53063;39.614;8.814;2023-03-20T00:15:53;12.50;99.90
66271;DHT22;53063;39.614;8.814;2023-03-20T00:18:21;12.60;99.90
66271;DHT22;53063;39.614;8.814;2023-03-20T00:20:51;12.60;99.90
66271;DHT22;53063;39.614;8.814;2023-03-20T00:23:18;12.60;99.90
66271;DHT22;53063;39.614;8.814;2023-03-20T00:25:45;12.50;99.90
66271;DHT22;53063;39.614;8.814;2023-03-20T00:28:41;12.40;99.90
66271;DHT22;53063;39.614;8.814;2023-03-20T00:33:44;12.30;99.90
66271;DHT22;53063;39.614;8.814;2023-03-20T00:36:10;12.40;99.90
66271;DHT22;53063;39.614;8.814;2023-03-20T00:38:36;12.40;99.90
66271;DHT22;53063;39.614;8.814;2023-03-20T00:41:02;12.30;99.90
66271;DHT22;53063;39.614;8.814;2023-03-20T00:43:30;12.20;99.90
66271;DHT22;53063;39.614;8.814;2023-03-20T00:45:57;12.10;99.90
66271;DHT22;53063;39.614;8.814;2023-03-20T00:48:23;12.10;99.90
66271;DHT22;53063;39.614;8.814;2023-03-20T00:50:49;12.10;99.90
66271;DHT22;53063;39.614;8.814;2023-03-20T00:53:15;12.10;99.90
66271;DHT22;53063;39.614;8.814;2023-03-20T00:55:41;12.20;99.90
66271;DHT22;53063;39.614;8.814;2023-03-20T00:58:08;12.20;99.90
66271;DHT22;53063;39.614;8.814;2023-03-20T01:00:43;12.20;99.90
66271;DHT22;53063;39.614;8.814;2023-03-20T01:05:41;12.10;99.90
66271;DHT22;53063;39.614;8.814;2023-03-20T01:08:21;12.20;99.90
66271;DHT22;53063;39.614;8.814;2023-03-20T01:10:50;12.10;99.90
66271;DHT22;53063;39.614;8.814;2023-03-20T01:13:21;12.10;99.90
66271;DHT22;53063;39.614;8.814;2023-03-20T01:15:48;12.10;99.90
66271;DHT22;53063;39.614;8.814;2023-03-20T01:18:16;12.20;99.90
66271;DHT22;53063;39.614;8.814;2023-03-20T01:20:43;12.30;99.90
66271;DHT22;53063;39.614;8.814;2023-03-20T01:23:09;12.30;99.90
66271;DHT22;53063;39.614;8.814;2023-03-20T01:25:36;12.30;99.90
66271;DHT22;53063;39.614;8.814;2023-03-20T01:28:06;12.30;99.90
66271;DHT22;53063;39.614;8.814;2023-03-20T01:30:36;12.40;99.90
66271;DHT22;53063;39.614;8.814;2023-03-20T01:33:16;12.40;99.90
66271;DHT22;53063;39.614;8.814;2023-03-20T01:35:46;12.40;99.90
66271;DHT22;53063;39.614;8.814;2023-03-20T01:38:23;12.40;99.90
66271;DHT22;53063;39.614;8.814;2023-03-20T01:43:23;12.30;99.90
66271;DHT22;53063;39.614;8.814;2023-03-20T01:51:27;12.40;99.90
66271;DHT22;53063;39.614;8.814;2023-03-20T01:54:05;12.30;99.90
66271;DHT22;53063;39.614;8.814;2023-03-20T01:56:38;12.30;99.90
66271;DHT22;53063;39.614;8.814;2023-03-20T01:59:13;12.30;99.90
66271;DHT22;53063;39.614;8.814;2023-03-20T02:01:41;12.20;99.90
66271;DHT22;53063;39.614;8.814;2023-03-20T02:04:08;12.20;99.90
66271;DHT22;53063;39.614;8.814;2023-03-20T02:07:05;12.20;99.90
66271;DHT22;53063;39.614;8.814;2023-03-20T02:09:55;12.00;99.90
66271;DHT22;53063;39.614;8.814;2023-03-20T02:12:50;11.70;99.90
66271;DHT22;53063;39.614;8.814;2023-03-20T02:15:26;11.70;99.90
66271;DHT22;53063;39.614;8.814;2023-03-20T02:18:11;11.70;99.90
66271;DHT22;53063;39.614;8.814;2023-03-20T02:23:29;11.80;99.90
66271;DHT22;53063;39.614;8.814;2023-03-20T02:28:55;11.70;99.90
66271;DHT22;53063;39.614;8.814;2023-03-20T02:34:28;11.70;99.90
66271;DHT22;53063;39.614;8.814;2023-03-20T02:45:37;12.20;99.90
66271;DHT22;53063;39.614;8.814;2023-03-20T02:48:50;12.30;99.90
66271;DHT22;53063;39.614;8.814;2023-03-20T02:56:54;12.40;99.90
66271;DHT22;53063;39.614;8.814;2023-03-20T02:59:44;12.10;99.90
66271;DHT22;53063;39.614;8.814;2023-03-20T03:02:11;12.10;99.90
66271;DHT22;53063;39.614;8.814;2023-03-20T03:04:56;11.90;99.90
66271;DHT22;53063;39.614;8.814;2023-03-20T03:07:26;11.80;99.90
66271;DHT22;53063;39.614;8.814;2023-03-20T03:09:58;11.80;99.90
66271;DHT22;53063;39.614;8.814;2023-03-20T03:12:31;11.80;99.90
66271;DHT22;53063;39.614;8.814;2023-03-20T03:15:03;12.00;99.90
66271;DHT22;53063;39.614;8.814;2023-03-20T03:17:33;12.20;99.90
66271;DHT22;53063;39.614;8.814;2023-03-20T03:20:11;12.30;99.90
66271;DHT22;53063;39.614;8.814;2023-03-20T03:22:39;12.40;99.90
66271;DHT22;53063;39.614;8.814;2023-03-20T03:25:05;12.50;99.90
66271;DHT22;53063;39.614;8.814;2023-03-20T03:27:36;12.50;99.90
66271;DHT22;53063;39.614;8.814;2023-03-20T03:30:19;12.60;99.90
66271;DHT22;53063;39.614;8.814;2023-03-20T03:32:50;12.40;99.90
66271;DHT22;53063;39.614;8.814;2023-03-20T03:35:23;12.30;99.90
66271;DHT22;53063;39.614;8.814;2023-03-20T03:40:38;12.20;99.90
66271;DHT22;53063;39.614;8.814;2023-03-20T03:46:08;12.20;99.90
66271;DHT22;53063;39.614;8.814;2023-03-20T03:48:44;12.20;99.90
66271;DHT22;53063;39.614;8.814;2023-03-20T03:51:16;12.10;99.90
66271;DHT22;53063;39.614;8.814;2023-03-20T03:54:10;12.10;99.90
66271;DHT22;53063;39.614;8.814;2023-03-20T03:56:39;12.10;99.90
66271;DHT22;53063;39.614;8.814;2023-03-20T03:59:34;12.10;99.90
66271;DHT22;53063;39.614;8.814;2023-03-20T04:01:58;12.10;99.90
66271;DHT22;53063;39.614;8.814;2023-03-20T04:04:27;12.00;99.90
66271;DHT22;53063;39.614;8.814;2023-03-20T04:06:54;11.80;99.90
66271;DHT22;53063;39.614;8.814;2023-03-20T04:09:20;11.70;99.90
66271;DHT22;53063;39.614;8.814;2023-03-20T04:11:49;11.70;99.90
66271;DHT22;53063;39.614;8.814;2023-03-20T04:14:15;11.70;99.90
66271;DHT22;53063;39.614;8.814;2023-03-20T04:16:41;11.80;99.90
66271;DHT22;53063;39.614;8.814;2023-03-20T04:19:07;11.90;99.90
66271;DHT22;53063;39.614;8.814;2023-03-20T04:21:33;11.90;99.90
66271;DHT22;53063;39.614;8.814;2023-03-20T04:23:59;11.90;99.90
66271;DHT22;53063;39.614;8.814;2023-03-20T04:26:26;11.90;99.90
66271;DHT22;53063;39.614;8.814;2023-03-20T04:28:52;11.80;99.90
66271;DHT22;53063;39.614;8.814;2023-03-20T04:31:47;11.80;99.90
66271;DHT22;53063;39.614;8.814;2023-03-20T04:34:45;11.90;99.90
66271;DHT22;53063;39.614;8.814;2023-03-20T04:37:37;11.90;99.90
66271;DHT22;53063;39.614;8.814;2023-03-20T04:40:06;12.00;99.90
66271;DHT22;53063;39.614;8.814;2023-03-20T04:42:33;12.00;99.90
66271;DHT22;53063;39.614;8.814;2023-03-20T04:45:03;12.00;99.90
66271;DHT22;53063;39.614;8.814;2023-03-20T04:47:29;12.00;99.90
66271;DHT22;53063;39.614;8.814;2023-03-20T04:49:55;12.00;99.90
66271;DHT22;53063;39.614;8.814;2023-03-20T04:52:21;12.00;99.90
66271;DHT22;53063;39.614;8.814;2023-03-20T04:54:47;12.10;99.90
66271;DHT22;53063;39.614;8.814;2023-03-20T04:57:13;12.20;99.90
66271;DHT22;53063;39.614;8.814;2023-03-20T04:59:40;12.20;99.90
66271;DHT22;53063;39.614;8.814;2023-03-20T05:02:06;12.20;99.90
66271;DHT22;53063;39.614;8.814;2023-03-20T05:04:32;12.30;99.90
66271;DHT22;53063;39.614;8.814;2023-03-20T05:06:58;12.20;99.90
66271;DHT22;53063;39.614;8.814;2023-03-20T05:09:30;12.20;99.90
66271;DHT22;53063;39.614;8.814;2023-03-20T05:12:00;12.30;99.90
66271;DHT22;53063;39.614;8.814;2023-03-20T05:14:49;12.30;99.90
66271;DHT22;53063;39.614;8.814;2023-03-20T05:17:33;12.30;99.90
66271;DHT22;53063;39.614;8.814;2023-03-20T05:20:29;12.30;99.90
66271;DHT22;53063;39.614;8.814;2023-03-20T05:23:02;12.30;99.90
66271;DHT22;53063;39.614;8.814;2023-03-20T05:25:47;12.30;99.90
66271;DHT22;53063;39.614;8.814;2023-03-20T05:28:26;12.40;99.90
66271;DHT22;53063;39.614;8.814;2023-03-20T05:31:15;12.40;99.90
66271;DHT22;53063;39.614;8.814;2023-03-20T05:34:10;12.40;99.90
66271;DHT22;53063;39.614;8.814;2023-03-20T05:36:55;12.50;99.90
66271;DHT22;53063;39.614;8.814;2023-03-20T05:39:24;12.50;99.90
66271;DHT22;53063;39.614;8.814;2023-03-20T05:42:08;12.50;99.90
66271;DHT22;53063;39.614;8.814;2023-03-20T05:44:43;12.50;99.90
66271;DHT22;53063;39.614;8.814;2023-03-20T05:47:19;12.40;99.90
66271;DHT22;53063;39.614;8.814;2023-03-20T05:50:12;12.40;99.90
66271;DHT22;53063;39.614;8.814;2023-03-20T05:53:13;12.40;99.90
66271;DHT22;53063;39.614;8.814;2023-03-20T05:55:45;12.40;99.90
66271;DHT22;53063;39.614;8.814;2023-03-20T05:58:31;12.40;99.90
66271;DHT22;53063;39.614;8.814;2023-03-20T06:01:17;12.50;99.90
66271;DHT22;53063;39.614;8.814;2023-03-20T06:03:58;12.50;99.90
66271;DHT22;53063;39.614;8.814;2023-03-20T06:06:56;12.60;99.90
66271;DHT22;53063;39.614;8.814;2023-03-20T06:09:23;12.60;99.90
66271;DHT22;53063;39.614;8.814;2023-03-20T06:11:49;12.70;99.90
66271;DHT22;53063;39.614;8.814;2023-03-20T06:14:16;12.70;99.90
66271;DHT22;53063;39.614;8.814;2023-03-20T06:16:47;12.70;99.90
66271;DHT22;53063;39.614;8.814;2023-03-20T06:19:14;12.70;99.90
66271;DHT22;53063;39.614;8.814;2023-03-20T06:21:41;12.70;99.90
66271;DHT22;53063;39.614;8.814;2023-03-20T06:24:12;12.70;99.90
66271;DHT22;53063;39.614;8.814;2023-03-20T06:26:37;12.70;99.90
66271;DHT22;53063;39.614;8.814;2023-03-20T06:29:08;12.70;99.90
66271;DHT22;53063;39.614;8.814;2023-03-20T06:31:34;12.70;99.90
66271;DHT22;53063;39.614;8.814;2023-03-20T06:34:02;12.80;99.90
66271;DHT22;53063;39.614;8.814;2023-03-20T06:36:31;12.70;99.90
66271;DHT22;53063;39.614;8.814;2023-03-20T06:39:04;12.70;99.90
66271;DHT22;53063;39.614;8.814;2023-03-20T06:41:30;12.80;99.90
66271;DHT22;53063;39.614;8.814;2023-03-20T06:43:56;12.80;99.90
66271;DHT22;53063;39.614;8.814;2023-03-20T06:46:28;12.80;99.90
66271;DHT22;53063;39.614;8.814;2023-03-20T06:48:54;12.80;99.90
66271;DHT22;53063;39.614;8.814;2023-03-20T06:51:20;13.00;99.90
66271;DHT22;53063;39.614;8.814;2023-03-20T06:53:50;14.00;99.90
66271;DHT22;53063;39.614;8.814;2023-03-20T06:56:20;14.60;99.90
66271;DHT22;53063;39.614;8.814;2023-03-20T06:58:45;14.90;99.90
66271;DHT22;53063;39.614;8.814;2023-03-20T07:01:14;14.80;99.90
66271;DHT22;53063;39.614;8.814;2023-03-20T07:03:42;15.30;99.90
66271;DHT22;53063;39.614;8.814;2023-03-20T07:06:09;15.80;99.90
66271;DHT22;53063;39.614;8.814;2023-03-20T07:08:37;16.50;99.90
66271;DHT22;53063;39.614;8.814;2023-03-20T07:11:03;16.50;99.90
66271;DHT22;53063;39.614;8.814;2023-03-20T07:13:30;16.90;99.90
66271;DHT22;53063;39.614;8.814;2023-03-20T07:16:02;17.00;99.90
66271;DHT22;53063;39.614;8.814;2023-03-20T07:18:30;17.60;99.90
66271;DHT22;53063;39.614;8.814;2023-03-20T07:21:02;18.00;98.90
66271;DHT22;53063;39.614;8.814;2023-03-20T07:23:31;18.30;97.30
66271;DHT22;53063;39.614;8.814;2023-03-20T07:25:59;18.80;92.60
66271;DHT22;53063;39.614;8.814;2023-03-20T07:28:25;18.60;90.80
66271;DHT22;53063;39.614;8.814;2023-03-20T07:31:02;19.00;91.50
66271;DHT22;53063;39.614;8.814;2023-03-20T07:33:30;21.50;85.70
66271;DHT22;53063;39.614;8.814;2023-03-20T07:35:56;21.10;78.60
66271;DHT22;53063;39.614;8.814;2023-03-20T07:38:22;19.90;79.80
66271;DHT22;53063;39.614;8.814;2023-03-20T07:41:02;18.30;87.00
66271;DHT22;53063;39.614;8.814;2023-03-20T07:43:28;18.90;88.40
66271;DHT22;53063;39.614;8.814;2023-03-20T07:46:20;21.70;78.70
66271;DHT22;53063;39.614;8.814;2023-03-20T07:48:46;23.20;68.00
66271;DHT22;53063;39.614;8.814;2023-03-20T07:51:12;23.70;66.50
66271;DHT22;53063;39.614;8.814;2023-03-20T07:53:38;24.10;63.10
66271;DHT22;53063;39.614;8.814;2023-03-20T07:56:04;24.40;61.20
66271;DHT22;53063;39.614;8.814;2023-03-20T07:58:31;25.30;57.60
66271;DHT22;53063;39.614;8.814;2023-03-20T08:00:57;25.10;56.80
66271;DHT22;53063;39.614;8.814;2023-03-20T08:03:23;21.20;64.90
66271;DHT22;53063;39.614;8.814;2023-03-20T08:05:49;22.40;64.10
66271;DHT22;53063;39.614;8.814;2023-03-20T08:08:15;22.00;66.50
66271;DHT22;53063;39.614;8.814;2023-03-20T08:10:41;24.10;58.30
66271;DHT22;53063;39.614;8.814;2023-03-20T08:13:07;21.00;65.70
66271;DHT22;53063;39.614;8.814;2023-03-20T08:15:32;20.00;72.60
66271;DHT22;53063;39.614;8.814;2023-03-20T08:17:58;21.50;67.30
66271;DHT22;53063;39.614;8.814;2023-03-20T08:20:24;23.50;57.70
66271;DHT22;53063;39.614;8.814;2023-03-20T08:22:51;25.40;54.00
66271;DHT22;53063;39.614;8.814;2023-03-20T08:25:17;26.20;51.70
66271;DHT22;53063;39.614;8.814;2023-03-20T08:27:43;22.90;56.60
66271;DHT22;53063;39.614;8.814;2023-03-20T08:30:09;22.50;60.80
66271;DHT22;53063;39.614;8.814;2023-03-20T08:32:36;24.70;55.50
66271;DHT22;53063;39.614;8.814;2023-03-20T08:35:03;22.70;56.10
66271;DHT22;53063;39.614;8.814;2023-03-20T08:37:29;21.40;62.90
66271;DHT22;53063;39.614;8.814;2023-03-20T08:39:55;22.30;62.00
66271;DHT22;53063;39.614;8.814;2023-03-20T08:42:21;25.10;54.00
66271;DHT22;53063;39.614;8.814;2023-03-20T08:44:47;23.40;56.20
66271;DHT22;53063;39.614;8.814;2023-03-20T08:47:13;20.70;62.70
66271;DHT22;53063;39.614;8.814;2023-03-20T08:49:39;18.70;71.00
66271;DHT22;53063;39.614;8.814;2023-03-20T08:52:05;19.00;71.90
66271;DHT22;53063;39.614;8.814;2023-03-20T08:54:31;20.70;68.80
66271;DHT22;53063;39.614;8.814;2023-03-20T08:56:58;20.60;66.60
66271;DHT22;53063;39.614;8.814;2023-03-20T08:59:24;20.40;66.20
66271;DHT22;53063;39.614;8.814;2023-03-20T09:01:50;21.00;67.70
66271;DHT22;53063;39.614;8.814;2023-03-20T09:04:16;21.90;64.10
66271;DHT22;53063;39.614;8.814;2023-03-20T09:06:42;21.90;64.20
66271;DHT22;53063;39.614;8.814;2023-03-20T09:09:08;21.50;65.20
66271;DHT22;53063;39.614;8.814;2023-03-20T09:11:35;20.50;68.80
66271;DHT22;53063;39.614;8.814;2023-03-20T09:14:01;19.40;70.50
66271;DHT22;53063;39.614;8.814;2023-03-20T09:16:27;19.80;73.40
66271;DHT22;53063;39.614;8.814;2023-03-20T09:18:53;20.90;68.80
66271;DHT22;53063;39.614;8.814;2023-03-20T09:21:19;21.30;66.80
66271;DHT22;53063;39.614;8.814;2023-03-20T09:23:45;21.30;66.50
66271;DHT22;53063;39.614;8.814;2023-03-20T09:26:12;20.30;68.40
66271;DHT22;53063;39.614;8.814;2023-03-20T09:28:37;19.70;69.80
66271;DHT22;53063;39.614;8.814;2023-03-20T09:31:04;20.80;67.70
66271;DHT22;53063;39.614;8.814;2023-03-20T09:33:29;20.40;67.50
66271;DHT22;53063;39.614;8.814;2023-03-20T09:35:55;19.90;68.70
66271;DHT22;53063;39.614;8.814;2023-03-20T09:38:21;20.50;68.10
66271;DHT22;53063;39.614;8.814;2023-03-20T09:40:53;21.30;64.30
66271;DHT22;53063;39.614;8.814;2023-03-20T09:46:01;21.20;61.10
66271;DHT22;53063;39.614;8.814;2023-03-20T09:48:39;21.20;62.70
66271;DHT22;53063;39.614;8.814;2023-03-20T09:57:01;21.60;62.80
66271;DHT22;53063;39.614;8.814;2023-03-20T09:59:29;21.50;62.40
66271;DHT22;53063;39.614;8.814;2023-03-20T10:02:18;21.20;62.30
66271;DHT22;53063;39.614;8.814;2023-03-20T10:04:52;21.60;62.30
66271;DHT22;53063;39.614;8.814;2023-03-20T10:07:19;21.80;60.50
66271;DHT22;53063;39.614;8.814;2023-03-20T10:09:46;22.40;57.70
66271;DHT22;53063;39.614;8.814;2023-03-20T10:12:30;22.50;58.50
66271;DHT22;53063;39.614;8.814;2023-03-20T10:18:11;22.50;57.90
66271;DHT22;53063;39.614;8.814;2023-03-20T10:21:01;21.70;59.40
66271;DHT22;53063;39.614;8.814;2023-03-20T10:24:04;22.30;58.60
66271;DHT22;53063;39.614;8.814;2023-03-20T10:26:34;23.00;57.30
66271;DHT22;53063;39.614;8.814;2023-03-20T10:29:07;22.90;56.30
66271;DHT22;53063;39.614;8.814;2023-03-20T10:31:53;22.60;56.70
66271;DHT22;53063;39.614;8.814;2023-03-20T10:40:38;22.00;59.40
66271;DHT22;53063;39.614;8.814;2023-03-20T10:43:23;22.20;57.10
66271;DHT22;53063;39.614;8.814;2023-03-20T10:45:58;22.30;57.20
66271;DHT22;53063;39.614;8.814;2023-03-20T10:48:34;22.40;58.20
66271;DHT22;53063;39.614;8.814;2023-03-20T10:51:03;22.40;55.90
66271;DHT22;53063;39.614;8.814;2023-03-20T10:53:53;22.50;57.40
66271;DHT22;53063;39.614;8.814;2023-03-20T10:56:35;22.40;56.40
66271;DHT22;53063;39.614;8.814;2023-03-20T11:01:39;22.50;55.00
66271;DHT22;53063;39.614;8.814;2023-03-20T11:04:05;22.40;56.00
66271;DHT22;53063;39.614;8.814;2023-03-20T11:06:37;22.90;56.00
66271;DHT22;53063;39.614;8.814;2023-03-20T11:09:15;23.00;53.30
66271;DHT22;53063;39.614;8.814;2023-03-20T11:11:45;23.40;53.20
66271;DHT22;53063;39.614;8.814;2023-03-20T11:14:20;23.60;53.20
66271;DHT22;53063;39.614;8.814;2023-03-20T11:16:49;22.30;56.20
66271;DHT22;53063;39.614;8.814;2023-03-20T11:19:18;22.60;56.80
66271;DHT22;53063;39.614;8.814;2023-03-20T11:21:54;22.30;56.60
66271;DHT22;53063;39.614;8.814;2023-03-20T11:24:36;21.40;59.00
66271;DHT22;53063;39.614;8.814;2023-03-20T11:27:17;21.50;58.40
66271;DHT22;53063;39.614;8.814;2023-03-20T11:29:47;21.80;59.10
66271;DHT22;53063;39.614;8.814;2023-03-20T11:32:30;22.70;57.60
66271;DHT22;53063;39.614;8.814;2023-03-20T11:35:18;22.80;55.30
66271;DHT22;53063;39.614;8.814;2023-03-20T11:37:48;22.20;57.20
66271;DHT22;53063;39.614;8.814;2023-03-20T11:40:24;22.10;57.10
66271;DHT22;53063;39.614;8.814;2023-03-20T11:43:14;21.90;58.20
66271;DHT22;53063;39.614;8.814;2023-03-20T11:45:54;22.20;57.20
66271;DHT22;53063;39.614;8.814;2023-03-20T11:48:23;21.50;58.70
66271;DHT22;53063;39.614;8.814;2023-03-20T11:51:02;21.90;58.20
66271;DHT22;53063;39.614;8.814;2023-03-20T11:53:33;22.30;57.00
66271;DHT22;53063;39.614;8.814;2023-03-20T11:58:32;22.00;58.60
66271;DHT22;53063;39.614;8.814;2023-03-20T12:01:00;21.50;58.10
66271;DHT22;53063;39.614;8.814;2023-03-20T12:06:05;21.70;59.30
66271;DHT22;53063;39.614;8.814;2023-03-20T12:08:34;22.10;58.80
66271;DHT22;53063;39.614;8.814;2023-03-20T12:11:16;21.90;60.20
66271;DHT22;53063;39.614;8.814;2023-03-20T12:13:44;21.70;58.40
66271;DHT22;53063;39.614;8.814;2023-03-20T12:16:18;21.90;58.10
66271;DHT22;53063;39.614;8.814;2023-03-20T12:19:12;21.90;56.90
66271;DHT22;53063;39.614;8.814;2023-03-20T12:22:08;21.90;58.30
66271;DHT22;53063;39.614;8.814;2023-03-20T12:24:44;21.50;59.70
66271;DHT22;53063;39.614;8.814;2023-03-20T12:32:43;21.60;58.60
66271;DHT22;53063;39.614;8.814;2023-03-20T12:35:18;21.90;57.00
66271;DHT22;53063;39.614;8.814;2023-03-20T12:37:47;22.50;55.00
66271;DHT22;53063;39.614;8.814;2023-03-20T12:40:17;22.50;55.10
66271;DHT22;53063;39.614;8.814;2023-03-20T12:54:09;22.70;53.10
66271;DHT22;53063;39.614;8.814;2023-03-20T12:59:41;22.00;54.00
66271;DHT22;53063;39.614;8.814;2023-03-20T13:05:04;22.80;52.10
66271;DHT22;53063;39.614;8.814;2023-03-20T13:18:44;22.60;53.50
66271;DHT22;53063;39.614;8.814;2023-03-20T13:21:44;22.10;55.20
66271;DHT22;53063;39.614;8.814;2023-03-20T13:24:42;22.20;56.40
66271;DHT22;53063;39.614;8.814;2023-03-20T13:38:08;21.70;57.90
66271;DHT22;53063;39.614;8.814;2023-03-20T13:40:40;21.90;56.90
66271;DHT22;53063;39.614;8.814;2023-03-20T13:45:43;21.40;57.50
66271;DHT22;53063;39.614;8.814;2023-03-20T13:50:59;21.00;56.90
66271;DHT22;53063;39.614;8.814;2023-03-20T14:04:24;20.60;59.50
66271;DHT22;53063;39.614;8.814;2023-03-20T14:06:55;20.40;58.60
66271;DHT22;53063;39.614;8.814;2023-03-20T14:09:30;20.50;61.50
66271;DHT22;53063;39.614;8.814;2023-03-20T14:12:08;20.50;59.00
66271;DHT22;53063;39.614;8.814;2023-03-20T14:14:54;20.10;59.80
66271;DHT22;53063;39.614;8.814;2023-03-20T14:17:29;20.40;61.30
66271;DHT22;53063;39.614;8.814;2023-03-20T14:19:56;20.70;61.00
66271;DHT22;53063;39.614;8.814;2023-03-20T14:22:25;20.40;59.40
66271;DHT22;53063;39.614;8.814;2023-03-20T14:27:21;20.10;58.50
66271;DHT22;53063;39.614;8.814;2023-03-20T14:29:47;20.00;60.60
66271;DHT22;53063;39.614;8.814;2023-03-20T14:34:58;19.80;62.30
66271;DHT22;53063;39.614;8.814;2023-03-20T14:37:34;19.70;62.00
66271;DHT22;53063;39.614;8.814;2023-03-20T14:42:46;19.50;61.80
66271;DHT22;53063;39.614;8.814;2023-03-20T14:45:42;19.40;63.10
66271;DHT22;53063;39.614;8.814;2023-03-20T14:53:31;19.30;62.80
66271;DHT22;53063;39.614;8.814;2023-03-20T14:56:12;19.20;64.40
66271;DHT22;53063;39.614;8.814;2023-03-20T15:04:04;19.40;64.10
66271;DHT22;53063;39.614;8.814;2023-03-20T15:06:32;19.20;63.30
66271;DHT22;53063;39.614;8.814;2023-03-20T15:09:09;19.30;61.20
66271;DHT22;53063;39.614;8.814;2023-03-20T15:11:37;19.10;61.70
66271;DHT22;53063;39.614;8.814;2023-03-20T15:14:06;19.10;61.60
66271;DHT22;53063;39.614;8.814;2023-03-20T15:16:35;18.90;59.70
66271;DHT22;53063;39.614;8.814;2023-03-20T15:19:07;18.80;61.20
66271;DHT22;53063;39.614;8.814;2023-03-20T15:21:40;18.90;59.90
66271;DHT22;53063;39.614;8.814;2023-03-20T15:24:07;18.80;55.60
66271;DHT22;53063;39.614;8.814;2023-03-20T15:26:34;18.60;56.10
66271;DHT22;53063;39.614;8.814;2023-03-20T15:29:06;18.50;54.70
66271;DHT22;53063;39.614;8.814;2023-03-20T15:31:34;18.40;54.70
66271;DHT22;53063;39.614;8.814;2023-03-20T15:34:03;18.60;55.60
66271;DHT22;53063;39.614;8.814;2023-03-20T15:36:33;18.60;57.10
66271;DHT22;53063;39.614;8.814;2023-03-20T15:39:14;18.60;59.70
66271;DHT22;53063;39.614;8.814;2023-03-20T15:41:50;18.40;60.10
66271;DHT22;53063;39.614;8.814;2023-03-20T15:44:19;18.20;55.60
66271;DHT22;53063;39.614;8.814;2023-03-20T15:49:35;18.10;59.00
66271;DHT22;53063;39.614;8.814;2023-03-20T15:52:13;18.10;59.50
66271;DHT22;53063;39.614;8.814;2023-03-20T15:54:41;18.00;62.30
66271;DHT22;53063;39.614;8.814;2023-03-20T15:57:12;18.10;63.20
66271;DHT22;53063;39.614;8.814;2023-03-20T15:59:41;18.00;62.00
66271;DHT22;53063;39.614;8.814;2023-03-20T16:02:08;18.00;60.30
66271;DHT22;53063;39.614;8.814;2023-03-20T16:04:47;17.80;59.50
66271;DHT22;53063;39.614;8.814;2023-03-20T16:07:21;17.80;60.60
66271;DHT22;53063;39.614;8.814;2023-03-20T16:09:48;17.60;61.90
66271;DHT22;53063;39.614;8.814;2023-03-20T16:12:17;17.40;62.60
66271;DHT22;53063;39.614;8.814;2023-03-20T16:14:44;17.20;63.90
66271;DHT22;53063;39.614;8.814;2023-03-20T16:17:12;17.20;65.20
66271;DHT22;53063;39.614;8.814;2023-03-20T16:19:39;17.30;65.60
66271;DHT22;53063;39.614;8.814;2023-03-20T16:22:22;17.10;64.70
66271;DHT22;53063;39.614;8.814;2023-03-20T16:24:54;17.20;64.00
66271;DHT22;53063;39.614;8.814;2023-03-20T16:27:30;16.80;64.90
66271;DHT22;53063;39.614;8.814;2023-03-20T16:29:57;17.00;65.50
66271;DHT22;53063;39.614;8.814;2023-03-20T16:34:54;16.80;66.60
66271;DHT22;53063;39.614;8.814;2023-03-20T16:37:24;16.80;67.10
66271;DHT22;53063;39.614;8.814;2023-03-20T16:42:37;16.50;67.20
66271;DHT22;53063;39.614;8.814;2023-03-20T16:45:05;16.50;68.00
66271;DHT22;53063;39.614;8.814;2023-03-20T16:47:36;16.50;68.80
66271;DHT22;53063;39.614;8.814;2023-03-20T16:52:55;16.40;70.70
66271;DHT22;53063;39.614;8.814;2023-03-20T16:55:29;16.10;71.60
66271;DHT22;53063;39.614;8.814;2023-03-20T16:57:59;16.00;72.20
66271;DHT22;53063;39.614;8.814;2023-03-20T17:00:28;16.00;72.60
66271;DHT22;53063;39.614;8.814;2023-03-20T17:05:40;15.70;74.50
66271;DHT22;53063;39.614;8.814;2023-03-20T17:08:14;15.80;75.00
66271;DHT22;53063;39.614;8.814;2023-03-20T17:10:49;15.60;76.70
66271;DHT22;53063;39.614;8.814;2023-03-20T17:13:15;15.40;77.70
66271;DHT22;53063;39.614;8.814;2023-03-20T17:15:41;15.20;78.90
66271;DHT22;53063;39.614;8.814;2023-03-20T17:18:11;15.30;80.00
66271;DHT22;53063;39.614;8.814;2023-03-20T17:20:38;15.10;80.50
66271;DHT22;53063;39.614;8.814;2023-03-20T17:23:10;14.90;81.90
66271;DHT22;53063;39.614;8.814;2023-03-20T17:25:37;14.80;82.50
66271;DHT22;53063;39.614;8.814;2023-03-20T17:28:03;14.80;82.60
66271;DHT22;53063;39.614;8.814;2023-03-20T17:30:29;14.90;82.10
66271;DHT22;53063;39.614;8.814;2023-03-20T17:32:55;14.80;81.90
66271;DHT22;53063;39.614;8.814;2023-03-20T17:35:21;14.70;82.20
66271;DHT22;53063;39.614;8.814;2023-03-20T17:37:47;14.50;83.40
66271;DHT22;53063;39.614;8.814;2023-03-20T17:40:20;14.50;84.10
66271;DHT22;53063;39.614;8.814;2023-03-20T17:42:46;14.30;85.40
66271;DHT22;53063;39.614;8.814;2023-03-20T17:45:15;14.20;86.10
66271;DHT22;53063;39.614;8.814;2023-03-20T17:47:43;14.20;86.50
66271;DHT22;53063;39.614;8.814;2023-03-20T17:50:16;14.20;87.00
66271;DHT22;53063;39.614;8.814;2023-03-20T17:52:46;14.30;86.90
66271;DHT22;53063;39.614;8.814;2023-03-20T17:55:12;14.20;86.40
66271;DHT22;53063;39.614;8.814;2023-03-20T17:57:39;14.10;86.70
66271;DHT22;53063;39.614;8.814;2023-03-20T18:00:08;14.00;86.70
66271;DHT22;53063;39.614;8.814;2023-03-20T18:02:34;13.80;87.10
66271;DHT22;53063;39.614;8.814;2023-03-20T18:05:01;13.90;87.10
66271;DHT22;53063;39.614;8.814;2023-03-20T18:07:26;13.90;86.10
66271;DHT22;53063;39.614;8.814;2023-03-20T18:09:52;13.80;85.70
66271;DHT22;53063;39.614;8.814;2023-03-20T18:12:19;13.80;85.40
66271;DHT22;53063;39.614;8.814;2023-03-20T18:14:46;13.90;84.20
66271;DHT22;53063;39.614;8.814;2023-03-20T18:17:15;13.80;83.10
66271;DHT22;53063;39.614;8.814;2023-03-20T18:19:42;13.70;82.10
66271;DHT22;53063;39.614;8.814;2023-03-20T18:22:09;13.70;81.70
66271;DHT22;53063;39.614;8.814;2023-03-20T18:24:35;13.70;81.30
66271;DHT22;53063;39.614;8.814;2023-03-20T18:27:04;13.70;80.70
66271;DHT22;53063;39.614;8.814;2023-03-20T18:29:30;13.50;80.90
66271;DHT22;53063;39.614;8.814;2023-03-20T18:31:56;13.40;81.40
66271;DHT22;53063;39.614;8.814;2023-03-20T18:34:22;13.30;82.10
66271;DHT22;53063;39.614;8.814;2023-03-20T18:36:47;13.30;83.00
66271;DHT22;53063;39.614;8.814;2023-03-20T18:39:23;13.20;83.00